createdAt,value
2023-02-11T00:01:22.740Z,7.43
2023-02-11T00:04:08.356Z,7.42
2023-02-11T00:06:55.136Z,7.43
2023-02-11T00:09:40.569Z,7.44
2023-02-11T00:12:26.085Z,7.45
2023-02-11T00:15:11.616Z,7.45
2023-02-11T00:17:56.978Z,7.43
2023-02-11T00:20:42.861Z,7.44
2023-02-11T00:23:28.054Z,7.43
2023-02-11T00:26:16.018Z,7.43
2023-02-11T00:29:02.644Z,7.43
2023-02-11T00:31:50.142Z,7.41
2023-02-11T00:34:36.815Z,7.39
2023-02-11T00:37:22.714Z,7.37
2023-02-11T00:40:08.779Z,7.33
2023-02-11T00:42:54.157Z,7.32
2023-02-11T00:45:39.372Z,7.30
2023-02-11T00:48:24.941Z,7.28
2023-02-11T00:51:10.691Z,7.27
2023-02-11T00:53:55.986Z,7.24
2023-02-11T00:56:42.044Z,7.23
2023-02-11T00:59:27.531Z,7.22
2023-02-11T01:02:13.305Z,7.21
2023-02-11T01:05:00.229Z,7.22
2023-02-11T01:07:45.798Z,7.22
2023-02-11T01:10:31.680Z,7.22
2023-02-11T01:13:16.923Z,7.21
2023-02-11T01:16:02.307Z,7.21
2023-02-11T01:18:48.282Z,7.20
2023-02-11T01:21:36.038Z,7.20
2023-02-11T01:24:21.325Z,7.21
2023-02-11T01:27:06.739Z,7.21
2023-02-11T01:29:51.958Z,7.23
2023-02-11T01:32:39.908Z,7.23
2023-02-11T01:35:27.447Z,7.25
2023-02-11T01:38:17.522Z,7.26
2023-02-11T01:41:08.180Z,7.26
2023-02-11T01:43:53.576Z,7.25
2023-02-11T01:46:39.009Z,7.23
2023-02-11T01:49:35.286Z,7.21
2023-02-11T01:52:37.057Z,7.17
2023-02-11T01:55:41.044Z,7.13
2023-02-11T01:58:29.140Z,7.11
2023-02-11T02:01:19.763Z,7.11
2023-02-11T02:04:08.464Z,7.08
2023-02-11T02:07:02.811Z,7.08
2023-02-11T02:09:58.870Z,7.08
2023-02-11T02:12:44.189Z,7.10
2023-02-11T02:15:38.368Z,7.13
2023-02-11T02:19:11.506Z,7.13
2023-02-11T02:22:06.327Z,7.15
2023-02-11T02:25:12.053Z,7.15
2023-02-11T02:28:29.385Z,7.15
2023-02-11T02:31:17.992Z,7.15
2023-02-11T02:34:13.563Z,7.12
2023-02-11T02:37:11.793Z,7.08
2023-02-11T02:39:59.821Z,7.01
2023-02-11T02:42:46.236Z,6.98
2023-02-11T02:45:33.175Z,6.93
2023-02-11T02:48:33.836Z,6.92
2023-02-11T02:51:49.405Z,6.92
2023-02-11T02:54:40.959Z,6.96
2023-02-11T02:57:58.826Z,7.01
2023-02-11T03:01:01.787Z,7.06
2023-02-11T03:04:18.603Z,7.10
2023-02-11T03:07:22.807Z,7.10
2023-02-11T03:10:20.938Z,7.12
2023-02-11T03:13:07.787Z,7.11
2023-02-11T03:15:57.288Z,7.13
2023-02-11T03:18:46.842Z,7.13
2023-02-11T03:21:36.477Z,7.13
2023-02-11T03:24:30.791Z,7.10
2023-02-11T03:27:41.563Z,7.04
2023-02-11T03:30:32.645Z,6.98
2023-02-11T03:34:08.935Z,6.90
2023-02-11T03:36:57.172Z,6.83
2023-02-11T03:39:50.457Z,6.83
2023-02-11T03:42:42.565Z,6.83
2023-02-11T03:45:29.210Z,6.84
2023-02-11T03:48:52.680Z,6.84
2023-02-11T03:51:39.386Z,6.87
2023-02-11T03:54:30.478Z,6.86
2023-02-11T03:57:15.878Z,6.85
2023-02-11T04:00:01.579Z,6.84
2023-02-11T04:02:56.857Z,6.83
2023-02-11T04:05:42.399Z,6.83
2023-02-11T04:08:28.090Z,6.84
2023-02-11T04:11:13.705Z,6.86
2023-02-11T04:13:59.008Z,6.87
2023-02-11T04:16:45.384Z,6.89
2023-02-11T04:19:31.348Z,6.90
2023-02-11T04:22:16.792Z,6.89
2023-02-11T04:25:02.182Z,6.91
2023-02-11T04:27:47.578Z,6.92
2023-02-11T04:30:33.008Z,6.93
2023-02-11T04:33:18.376Z,6.93
2023-02-11T04:36:03.738Z,6.92
2023-02-11T04:38:49.906Z,6.93
2023-02-11T04:41:35.239Z,6.93
2023-02-11T04:44:20.675Z,6.94
2023-02-11T04:47:06.303Z,6.97
2023-02-11T04:49:51.626Z,6.99
2023-02-11T04:52:37.141Z,7.02
2023-02-11T04:55:22.488Z,7.01
2023-02-11T04:58:07.911Z,7.00
2023-02-11T05:00:53.328Z,7.01
2023-02-11T05:03:38.741Z,7.02
2023-02-11T05:06:24.687Z,7.02
2023-02-11T05:09:13.274Z,7.03
2023-02-11T05:11:58.600Z,7.04
2023-02-11T05:14:43.970Z,7.03
2023-02-11T05:17:29.287Z,7.03
2023-02-11T05:20:15.817Z,7.02
2023-02-11T05:23:01.392Z,7.02
2023-02-11T05:25:46.653Z,7.02
2023-02-11T05:28:32.130Z,7.03
2023-02-11T05:31:17.531Z,7.03
2023-02-11T05:34:04.190Z,7.02
2023-02-11T05:36:49.573Z,7.02
2023-02-11T05:39:34.992Z,7.03
2023-02-11T05:42:20.342Z,7.03
2023-02-11T05:45:06.225Z,7.04
2023-02-11T05:47:51.978Z,7.03
2023-02-11T05:50:37.454Z,7.05
2023-02-11T05:53:23.101Z,7.03
2023-02-11T05:56:08.650Z,7.04
2023-02-11T05:58:53.985Z,7.07
2023-02-11T06:01:39.372Z,7.07
2023-02-11T06:04:24.644Z,7.07
2023-02-11T06:07:10.144Z,7.08
2023-02-11T06:09:55.622Z,7.09
2023-02-11T06:12:40.966Z,7.09
2023-02-11T06:15:26.455Z,7.10
2023-02-11T06:18:11.747Z,7.12
2023-02-11T06:20:57.102Z,7.14
2023-02-11T06:23:43.642Z,7.13
2023-02-11T06:26:29.008Z,7.14
2023-02-11T06:29:14.756Z,7.12
2023-02-11T06:32:00.190Z,7.15
2023-02-11T06:34:46.532Z,7.16
2023-02-11T06:37:31.785Z,7.17
2023-02-11T06:40:17.159Z,7.17
2023-02-11T06:43:02.632Z,7.21
2023-02-11T06:45:55.797Z,7.18
2023-02-11T06:48:43.136Z,7.20
2023-02-11T06:51:30.043Z,7.21
2023-02-11T06:54:15.665Z,7.22
2023-02-11T06:57:01.118Z,7.21
2023-02-11T06:59:47.424Z,7.23
2023-02-11T07:02:32.942Z,7.24
2023-02-11T07:05:18.207Z,7.25
2023-02-11T07:08:03.682Z,7.26
2023-02-11T07:10:48.996Z,7.26
2023-02-11T07:13:34.311Z,7.27
2023-02-11T07:16:20.510Z,7.29
2023-02-11T07:19:05.954Z,7.30
2023-02-11T07:21:52.469Z,7.30
2023-02-11T07:24:38.001Z,7.33
2023-02-11T07:27:23.442Z,7.34
2023-02-11T07:30:09.569Z,7.38
2023-02-11T07:32:56.778Z,7.39
2023-02-11T07:35:42.792Z,7.39
2023-02-11T07:38:28.554Z,7.41
2023-02-11T07:41:17.124Z,7.43
2023-02-11T07:44:03.510Z,7.43
2023-02-11T07:46:49.376Z,7.43
2023-02-11T07:49:34.550Z,7.46
2023-02-11T07:52:20.274Z,7.49
2023-02-11T07:55:06.216Z,7.51
2023-02-11T07:57:51.828Z,7.48
2023-02-11T08:00:37.430Z,7.50
2023-02-11T08:03:22.960Z,7.52
2023-02-11T08:06:11.271Z,7.52
2023-02-11T08:08:57.111Z,7.52
2023-02-11T08:11:42.981Z,7.52
2023-02-11T08:14:28.670Z,7.53
2023-02-11T08:17:13.934Z,7.57
2023-02-11T08:19:59.426Z,7.60
2023-02-11T08:22:44.816Z,7.64
2023-02-11T08:25:30.073Z,7.67
2023-02-11T08:28:15.578Z,7.70
2023-02-11T08:31:09.098Z,7.71
2023-02-11T08:33:57.932Z,7.73
2023-02-11T08:36:43.823Z,7.76
2023-02-11T08:39:29.220Z,7.78
2023-02-11T08:42:15.712Z,7.79
2023-02-11T08:45:01.327Z,7.79
2023-02-11T08:47:46.584Z,7.81
2023-02-11T08:50:32.405Z,7.85
2023-02-11T08:53:17.930Z,7.86
2023-02-11T08:56:03.908Z,7.91
2023-02-11T08:58:50.450Z,7.93
2023-02-11T09:01:35.981Z,7.98
2023-02-11T09:04:21.175Z,7.98
2023-02-11T09:07:07.443Z,8.03
2023-02-11T09:09:53.105Z,8.05
2023-02-11T09:12:38.693Z,8.07
2023-02-11T09:15:24.034Z,8.09
2023-02-11T09:18:09.333Z,8.14
2023-02-11T09:21:05.887Z,8.17
2023-02-11T09:23:51.644Z,8.23
2023-02-11T09:26:37.780Z,8.26
2023-02-11T09:29:23.581Z,8.32
2023-02-11T09:32:10.053Z,8.34
2023-02-11T09:34:55.626Z,8.37
2023-02-11T09:37:40.996Z,8.40
2023-02-11T09:40:26.387Z,8.43
2023-02-11T09:43:24.934Z,8.47
2023-02-11T09:46:15.237Z,8.51
2023-02-11T09:49:02.181Z,8.57
2023-02-11T09:52:24.976Z,8.62
2023-02-11T09:55:19.581Z,8.66
2023-02-11T09:58:15.186Z,8.72
2023-02-11T10:01:19.962Z,8.69
2023-02-11T10:04:48.907Z,8.71
2023-02-11T10:07:34.163Z,8.72
2023-02-11T10:10:37.221Z,8.73
2023-02-11T10:13:47.526Z,8.76
2023-02-11T10:16:41.976Z,8.80
2023-02-11T10:19:45.807Z,8.85
2023-02-11T10:22:41.478Z,8.90
2023-02-11T10:25:27.116Z,8.93
2023-02-11T10:28:19.041Z,8.96
2023-02-11T10:31:15.978Z,9.01
2023-02-11T10:34:05.513Z,9.07
2023-02-11T10:36:51.399Z,9.12
2023-02-11T10:39:37.066Z,9.20
2023-02-11T10:42:22.657Z,9.24
2023-02-11T10:45:17.891Z,9.27
2023-02-11T10:48:27.349Z,9.32
2023-02-11T10:51:23.418Z,9.37
2023-02-11T10:54:13.876Z,9.40
2023-02-11T10:57:00.318Z,9.41
2023-02-11T10:59:46.051Z,9.45
2023-02-11T11:02:34.776Z,9.48
2023-02-11T11:05:28.061Z,9.50
2023-02-11T11:08:13.568Z,9.55
2023-02-11T11:11:05.770Z,9.59
2023-02-11T11:13:54.138Z,9.62
2023-02-11T11:16:54.611Z,9.70
2023-02-11T11:19:39.950Z,9.74
2023-02-11T11:22:25.338Z,9.79
2023-02-11T11:25:30.622Z,9.82
2023-02-11T11:28:23.944Z,9.88
2023-02-11T11:31:37.438Z,9.90
2023-02-11T11:34:26.294Z,9.98
2023-02-11T11:37:15.178Z,9.99
2023-02-11T11:40:11.558Z,10.04
2023-02-11T11:43:15.576Z,10.13
2023-02-11T11:46:02.896Z,10.23
2023-02-11T11:48:51.848Z,10.34
2023-02-11T11:51:41.959Z,10.40
2023-02-11T11:54:29.336Z,10.49
2023-02-11T11:57:25.724Z,10.47
2023-02-11T12:00:20.964Z,10.51
2023-02-11T12:03:09.233Z,10.52
2023-02-11T12:06:18.624Z,10.58
2023-02-11T12:09:19.864Z,10.63
2023-02-11T12:12:32.872Z,10.65
2023-02-11T12:15:43.253Z,10.65
2023-02-11T12:18:53.415Z,10.64
2023-02-11T12:22:02.984Z,10.63
2023-02-11T12:25:16.882Z,10.70
2023-02-11T12:28:35.932Z,10.81
2023-02-11T12:31:47.951Z,10.84
2023-02-11T12:34:53.829Z,10.81
2023-02-11T12:37:59.386Z,10.77
2023-02-11T12:41:10.431Z,10.76
2023-02-11T12:43:56.197Z,10.74
2023-02-11T12:46:51.691Z,10.72
2023-02-11T12:49:49.795Z,10.69
2023-02-11T12:52:50.946Z,10.71
2023-02-11T12:55:42.898Z,10.65
2023-02-11T12:58:44.146Z,10.60
2023-02-11T13:01:40.890Z,10.56
2023-02-11T13:04:33.443Z,10.56
2023-02-11T13:07:29.809Z,10.56
2023-02-11T13:10:30.409Z,10.55
2023-02-11T13:13:45.021Z,10.55
2023-02-11T13:16:33.652Z,10.52
2023-02-11T13:19:42.675Z,10.50
2023-02-11T13:22:44.219Z,10.46
2023-02-11T13:25:36.275Z,10.39
2023-02-11T13:28:54.402Z,10.41
2023-02-11T13:31:39.918Z,10.42
2023-02-11T13:34:46.539Z,10.40
2023-02-11T13:37:37.491Z,10.41
2023-02-11T13:40:45.204Z,10.42
2023-02-11T13:43:33.086Z,10.40
2023-02-11T13:46:20.204Z,10.41
2023-02-11T13:49:05.469Z,10.38
2023-02-11T13:51:52.449Z,10.40
2023-02-11T13:54:39.920Z,10.45
2023-02-11T13:57:32.767Z,10.49
2023-02-11T14:00:33.826Z,10.56
2023-02-11T14:03:55.478Z,10.63
2023-02-11T14:07:45.416Z,10.74
2023-02-11T14:10:43.076Z,10.83
2023-02-11T14:13:34.654Z,10.85
2023-02-11T14:16:36.331Z,10.86
2023-02-11T14:19:33.138Z,10.91
2023-02-11T14:22:18.665Z,10.97
2023-02-11T14:25:15.474Z,10.97
2023-02-11T14:28:16.308Z,10.97
2023-02-11T14:31:12.560Z,11.01
2023-02-11T14:34:08.317Z,11.01
2023-02-11T14:37:18.254Z,11.00
2023-02-11T14:40:10.994Z,10.97
2023-02-11T14:43:02.144Z,10.92
2023-02-11T14:45:53.687Z,10.93
2023-02-11T14:48:45.756Z,10.92
2023-02-11T14:51:36.490Z,10.90
2023-02-11T14:54:26.594Z,10.86
2023-02-11T14:57:18.263Z,10.85
2023-02-11T15:00:19.830Z,10.81
2023-02-11T15:03:05.510Z,10.80
2023-02-11T15:06:04.365Z,10.75
2023-02-11T15:08:58.324Z,10.70
2023-02-11T15:11:46.950Z,10.63
2023-02-11T15:14:35.636Z,10.57
2023-02-11T15:17:28.188Z,10.52
2023-02-11T15:20:27.799Z,10.47
2023-02-11T15:23:23.521Z,10.38
2023-02-11T15:26:21.537Z,10.26
2023-02-11T15:29:16.843Z,10.23
2023-02-11T15:32:12.430Z,10.18
2023-02-11T15:34:58.630Z,10.15
2023-02-11T15:37:44.822Z,10.13
2023-02-11T15:40:33.255Z,10.11
2023-02-11T15:43:18.522Z,10.11
2023-02-11T15:46:03.883Z,10.11
2023-02-11T15:48:55.027Z,10.04
2023-02-11T15:51:44.791Z,9.98
2023-02-11T15:54:32.200Z,9.95
2023-02-11T15:57:18.204Z,9.92
2023-02-11T16:00:07.238Z,9.87
2023-02-11T16:02:57.416Z,9.86
2023-02-11T16:05:43.008Z,9.80
2023-02-11T16:08:33.006Z,9.74
2023-02-11T16:11:33.588Z,9.70
2023-02-11T16:14:27.991Z,9.64
2023-02-11T16:17:26.117Z,9.62
2023-02-11T16:20:19.909Z,9.59
2023-02-11T16:23:07.532Z,9.55
2023-02-11T16:26:26.487Z,9.51
2023-02-11T16:29:18.191Z,9.49
2023-02-11T16:32:17.574Z,9.43
2023-02-11T16:35:11.361Z,9.41
2023-02-11T16:37:57.083Z,9.38
2023-02-11T16:40:44.578Z,9.33
2023-02-11T16:43:30.281Z,9.31
2023-02-11T16:46:16.223Z,9.27
2023-02-11T16:49:11.747Z,9.25
2023-02-11T16:52:03.594Z,9.21
2023-02-11T16:54:49.459Z,9.20
2023-02-11T16:57:34.925Z,9.17
2023-02-11T17:00:20.821Z,9.17
2023-02-11T17:03:08.319Z,9.14
2023-02-11T17:05:55.930Z,9.10
2023-02-11T17:08:41.608Z,9.06
2023-02-11T17:11:27.139Z,9.03
2023-02-11T17:14:12.599Z,9.01
2023-02-11T17:16:58.410Z,9.02
2023-02-11T17:19:44.019Z,9.03
2023-02-11T17:22:29.661Z,8.98
2023-02-11T17:25:15.156Z,8.94
2023-02-11T17:28:00.624Z,8.93
2023-02-11T17:30:46.291Z,8.91
2023-02-11T17:33:33.976Z,8.89
2023-02-11T17:36:20.822Z,8.88
2023-02-11T17:39:08.254Z,8.85
2023-02-11T17:41:53.978Z,8.83
2023-02-11T17:44:39.409Z,8.81
2023-02-11T17:47:25.646Z,8.82
2023-02-11T17:50:11.318Z,8.78
2023-02-11T17:52:57.305Z,8.76
2023-02-11T17:55:43.137Z,8.75
2023-02-11T17:58:28.903Z,8.73
2023-02-11T18:01:14.323Z,8.73
2023-02-11T18:03:59.900Z,8.74
2023-02-11T18:06:46.448Z,8.70
2023-02-11T18:09:35.923Z,8.67
2023-02-11T18:12:25.311Z,8.65
2023-02-11T18:15:10.907Z,8.62
2023-02-11T18:17:56.268Z,8.60
2023-02-11T18:21:03.478Z,8.58
2023-02-11T18:23:50.253Z,8.55
2023-02-11T18:26:36.499Z,8.50
2023-02-11T18:29:22.017Z,8.51
2023-02-11T18:32:07.461Z,8.50
2023-02-11T18:34:52.716Z,8.48
2023-02-11T18:37:37.956Z,8.48
2023-02-11T18:40:23.516Z,8.46
2023-02-11T18:43:08.834Z,8.46
2023-02-11T18:45:54.634Z,8.44
2023-02-11T18:48:41.452Z,8.42
2023-02-11T18:51:26.984Z,8.39
2023-02-11T18:54:13.590Z,8.37
2023-02-11T18:56:58.959Z,8.35
2023-02-11T18:59:44.482Z,8.33
2023-02-11T19:02:29.865Z,8.34
2023-02-11T19:05:15.830Z,8.35
2023-02-11T19:08:01.458Z,8.35
2023-02-11T19:10:48.157Z,8.34
2023-02-11T19:13:33.708Z,8.34
2023-02-11T19:16:19.970Z,8.33
2023-02-11T19:19:05.847Z,8.32
2023-02-11T19:21:51.420Z,8.28
2023-02-11T19:24:37.568Z,8.27
2023-02-11T19:27:22.900Z,8.27
2023-02-11T19:30:09.629Z,8.24
2023-02-11T19:32:57.223Z,8.20
2023-02-11T19:35:42.521Z,8.17
2023-02-11T19:38:28.062Z,8.15
2023-02-11T19:41:16.106Z,8.14
2023-02-11T19:44:02.448Z,8.10
2023-02-11T19:46:50.287Z,8.08
2023-02-11T19:49:35.984Z,8.06
2023-02-11T19:52:21.709Z,8.03
2023-02-11T19:55:07.952Z,7.99
2023-02-11T19:57:53.589Z,7.98
2023-02-11T20:00:39.771Z,7.95
2023-02-11T20:03:25.260Z,7.94
2023-02-11T20:06:17.241Z,7.94
2023-02-11T20:09:06.710Z,7.93
2023-02-11T20:11:52.470Z,7.91
2023-02-11T20:14:38.056Z,7.89
2023-02-11T20:17:23.666Z,7.86
2023-02-11T20:20:09.623Z,7.87
2023-02-11T20:22:55.112Z,7.87
2023-02-11T20:25:40.513Z,7.85
2023-02-11T20:28:25.940Z,7.84
2023-02-11T20:31:12.650Z,7.88
2023-02-11T20:33:58.772Z,7.85
2023-02-11T20:36:51.702Z,7.82
2023-02-11T20:39:40.986Z,7.78
2023-02-11T20:42:27.499Z,7.75
2023-02-11T20:45:12.934Z,7.72
2023-02-11T20:47:58.224Z,7.70
2023-02-11T20:50:43.435Z,7.69
2023-02-11T20:53:28.987Z,7.64
2023-02-11T20:56:14.449Z,7.63
2023-02-11T20:59:01.160Z,7.58
2023-02-11T21:01:59.025Z,7.57
2023-02-11T21:04:44.486Z,7.55
2023-02-11T21:07:29.783Z,7.54
2023-02-11T21:10:15.043Z,7.54
2023-02-11T21:13:00.543Z,7.54
2023-02-11T21:15:46.127Z,7.55
2023-02-11T21:18:32.732Z,7.58
2023-02-11T21:21:19.708Z,7.59
2023-02-11T21:24:06.739Z,7.63
2023-02-11T21:26:52.171Z,7.63
2023-02-11T21:29:52.671Z,7.65
2023-02-11T21:32:39.684Z,7.65
2023-02-11T21:35:25.633Z,7.67
2023-02-11T21:38:11.228Z,7.67
2023-02-11T21:41:03.274Z,7.66
2023-02-11T21:43:49.572Z,7.69
2023-02-11T21:46:35.422Z,7.68
2023-02-11T21:49:21.569Z,7.66
2023-02-11T21:52:06.913Z,7.63
2023-02-11T21:54:52.127Z,7.61
2023-02-11T21:57:37.638Z,7.60
2023-02-11T22:00:23.258Z,7.60
2023-02-11T22:03:08.724Z,7.58
2023-02-11T22:05:54.530Z,7.57
2023-02-11T22:08:40.782Z,7.58
2023-02-11T22:11:26.117Z,7.62
2023-02-11T22:14:11.573Z,7.68
2023-02-11T22:16:56.905Z,7.71
2023-02-11T22:19:42.225Z,7.73
2023-02-11T22:22:29.192Z,7.74
2023-02-11T22:25:15.558Z,7.72
2023-02-11T22:28:01.313Z,7.71
2023-02-11T22:30:46.679Z,7.75
2023-02-11T22:33:32.151Z,7.77
2023-02-11T22:36:19.027Z,7.81
2023-02-11T22:39:07.415Z,7.82
2023-02-11T22:41:54.461Z,7.81
2023-02-11T22:44:40.182Z,7.80
2023-02-11T22:47:25.571Z,7.79
2023-02-11T22:50:11.290Z,7.76
2023-02-11T22:52:56.704Z,7.75
2023-02-11T22:55:42.080Z,7.73
2023-02-11T22:58:27.601Z,7.72
2023-02-11T23:01:14.406Z,7.73
2023-02-11T23:04:01.920Z,7.70
2023-02-11T23:06:50.552Z,7.68
2023-02-11T23:09:35.736Z,7.68
2023-02-11T23:12:21.283Z,7.69
2023-02-11T23:15:07.263Z,7.65
2023-02-11T23:17:52.874Z,7.64
2023-02-11T23:20:41.620Z,7.62
2023-02-11T23:23:27.009Z,7.59
2023-02-11T23:26:15.591Z,7.60
2023-02-11T23:29:01.361Z,7.62
2023-02-11T23:31:47.372Z,7.64
2023-02-11T23:34:32.748Z,7.64
2023-02-11T23:37:18.522Z,7.62
2023-02-11T23:40:04.435Z,7.60
2023-02-11T23:42:50.092Z,7.57
2023-02-11T23:45:35.533Z,7.56
2023-02-11T23:48:21.004Z,7.53
2023-02-11T23:51:09.722Z,7.49
2023-02-11T23:53:56.307Z,7.46
2023-02-11T23:56:42.679Z,7.43
2023-02-11T23:59:28.210Z,7.41
